createdAt,value
2019-01-23T00:01:08.582Z,96401.13
2019-01-23T00:03:44.457Z,96407.52
2019-01-23T00:06:14.443Z,96410.11
2019-01-23T00:08:44.249Z,96403.26
2019-01-23T00:11:14.118Z,96403.26
2019-01-23T00:13:43.939Z,96403.67
2019-01-23T00:16:14.083Z,96395.13
2019-01-23T00:18:44.091Z,96394.26
2019-01-23T00:21:17.708Z,96394.27
2019-01-23T00:23:49.177Z,96387.41
2019-01-23T00:26:18.974Z,96386.98
2019-01-23T00:28:48.796Z,96381.86
2019-01-23T00:31:20.083Z,96382.72
2019-01-23T00:33:50.012Z,96383.55
2019-01-23T00:36:20.006Z,96383.56
2019-01-23T00:38:49.887Z,96372.86
2019-01-23T00:41:19.685Z,96370.30
2019-01-23T00:43:50.188Z,96361.74
2019-01-23T00:46:20.187Z,96362.59
2019-01-23T00:48:49.986Z,96352.77
2019-01-23T00:51:19.766Z,96354.03
2019-01-23T00:53:49.741Z,96349.34
2019-01-23T00:56:23.759Z,96343.36
2019-01-23T00:58:55.191Z,96349.77
2019-01-23T01:01:35.959Z,96349.34
2019-01-23T01:04:13.527Z,96348.48
2019-01-23T01:06:53.286Z,96344.20
2019-01-23T01:09:23.009Z,96349.78
2019-01-23T01:11:57.634Z,96345.48
2019-01-23T01:14:43.267Z,96347.22
2019-01-23T01:17:21.396Z,96345.06
2019-01-23T01:20:02.403Z,96342.48
2019-01-23T01:22:50.215Z,96342.49
2019-01-23T01:25:33.933Z,96333.08
2019-01-23T01:28:12.805Z,96336.95
2019-01-23T01:30:44.357Z,96334.38
2019-01-23T01:33:16.005Z,96330.52
2019-01-23T01:35:45.906Z,96329.25
2019-01-23T01:38:23.354Z,96322.39
2019-01-23T01:41:09.975Z,96321.55
2019-01-23T01:43:52.519Z,96317.72
2019-01-23T01:46:25.525Z,96312.56
2019-01-23T01:49:03.236Z,96309.16
2019-01-23T01:51:54.286Z,96307.87
2019-01-23T01:54:39.170Z,96307.03
2019-01-23T01:57:18.577Z,96300.59
2019-01-23T01:59:51.907Z,96301.90
2019-01-23T02:02:35.144Z,96295.48
2019-01-23T02:05:10.586Z,96297.61
2019-01-23T02:07:44.768Z,96296.34
2019-01-23T02:10:30.608Z,96298.02
2019-01-23T02:13:11.265Z,96286.51
2019-01-23T02:15:49.216Z,96278.78
2019-01-23T02:18:30.883Z,96285.64
2019-01-23T02:21:03.522Z,96280.94
2019-01-23T02:23:39.757Z,96284.78
2019-01-23T02:26:12.215Z,96279.66
2019-01-23T02:29:12.067Z,96274.95
2019-01-23T02:32:01.132Z,96268.52
2019-01-23T02:34:54.686Z,96266.41
2019-01-23T02:37:31.951Z,96258.27
2019-01-23T02:40:04.303Z,96254.44
2019-01-23T02:42:34.119Z,96251.86
2019-01-23T02:45:10.103Z,96251.00
2019-01-23T02:47:40.381Z,96249.30
2019-01-23T02:50:39.961Z,96238.19
2019-01-23T02:53:19.020Z,96238.61
2019-01-23T02:55:51.053Z,96244.16
2019-01-23T02:58:41.082Z,96237.75
2019-01-23T03:01:10.882Z,96236.47
2019-01-23T03:03:42.338Z,96238.20
2019-01-23T03:06:12.314Z,96240.34
2019-01-23T03:08:42.152Z,96233.06
2019-01-23T03:11:13.023Z,96233.92
2019-01-23T03:13:44.378Z,96224.52
2019-01-23T03:16:23.649Z,96228.36
2019-01-23T03:19:02.681Z,96224.52
2019-01-23T03:21:33.276Z,96222.81
2019-01-23T03:24:25.338Z,96222.38
2019-01-23T03:26:56.788Z,96227.50
2019-01-23T03:29:30.361Z,96222.37
2019-01-23T03:32:00.186Z,96214.68
2019-01-23T03:34:29.978Z,96217.68
2019-01-23T03:37:01.475Z,96208.68
2019-01-23T03:39:31.965Z,96208.27
2019-01-23T03:42:02.475Z,96204.84
2019-01-23T03:44:32.329Z,96203.58
2019-01-23T03:47:02.140Z,96202.70
2019-01-23T03:49:31.859Z,96207.41
2019-01-23T03:52:01.715Z,96201.41
2019-01-23T03:54:31.510Z,96200.58
2019-01-23T03:57:01.462Z,96196.28
2019-01-23T03:59:32.466Z,96197.16
2019-01-23T04:02:06.624Z,96196.30
2019-01-23T04:04:52.393Z,96186.91
2019-01-23T04:07:26.782Z,96185.62
2019-01-23T04:09:57.294Z,96183.05
2019-01-23T04:12:27.667Z,96175.78
2019-01-23T04:15:03.875Z,96178.78
2019-01-23T04:17:36.738Z,96175.80
2019-01-23T04:20:28.338Z,96175.36
2019-01-23T04:23:04.053Z,96175.36
2019-01-23T04:25:47.525Z,96172.38
2019-01-23T04:28:25.440Z,96186.05
2019-01-23T04:31:04.168Z,96182.63
2019-01-23T04:33:39.552Z,96178.34
2019-01-23T04:36:18.635Z,96174.06
2019-01-23T04:38:50.980Z,96178.78
2019-01-23T04:41:31.686Z,96171.50
2019-01-23T04:44:15.554Z,96174.06
2019-01-23T04:46:48.053Z,96178.78
2019-01-23T04:49:46.581Z,96174.94
2019-01-23T04:52:27.960Z,96178.78
2019-01-23T04:58:01.392Z,96169.81
2019-01-23T05:00:41.084Z,96175.38
2019-01-23T05:03:19.285Z,96179.66
2019-01-23T05:05:58.248Z,96173.68
2019-01-23T05:08:56.173Z,96171.11
2019-01-23T05:15:14.126Z,96172.81
2019-01-23T05:30:22.013Z,96168.13
2019-01-23T05:45:26.653Z,96163.42
2019-01-23T05:48:10.083Z,96159.95
2019-01-23T05:50:39.962Z,96151.11
2019-01-23T05:53:10.331Z,96154.48
2019-01-23T05:55:40.283Z,96161.05
2019-01-23T05:58:10.265Z,96163.38
2019-01-23T06:00:40.078Z,96163.73
2019-01-23T06:03:09.864Z,96161.98
2019-01-23T06:05:39.589Z,96166.45
2019-01-23T06:08:09.442Z,96167.44
2019-01-23T06:10:46.926Z,96164.08
2019-01-23T06:13:24.218Z,96172.23
2019-01-23T06:15:54.185Z,96171.44
2019-01-23T06:18:24.160Z,96177.03
2019-01-23T06:20:55.588Z,96164.64
2019-01-23T06:23:27.197Z,96165.48
2019-01-23T06:25:57.047Z,96164.66
2019-01-23T06:28:26.884Z,96171.48
2019-01-23T06:30:56.679Z,96174.45
2019-01-23T06:33:26.569Z,96170.20
2019-01-23T06:35:56.386Z,96167.62
2019-01-23T06:38:26.182Z,96164.66
2019-01-23T06:40:56.248Z,96169.39
2019-01-23T06:43:26.061Z,96168.52
2019-01-23T06:45:56.080Z,96170.25
2019-01-23T06:48:27.871Z,96168.97
2019-01-23T06:51:10.973Z,96167.67
2019-01-23T06:53:40.844Z,96172.80
2019-01-23T07:03:02.994Z,96170.67
2019-01-23T07:05:36.919Z,96171.11
2019-01-23T07:08:26.066Z,96169.39
2019-01-23T07:11:09.031Z,96174.52
2019-01-23T07:13:45.738Z,96168.11
2019-01-23T07:16:30.112Z,96166.41
2019-01-23T07:19:18.844Z,96159.11
2019-01-23T07:22:04.959Z,96164.23
2019-01-23T07:24:39.956Z,96156.52
2019-01-23T07:27:36.220Z,96160.37
2019-01-23T07:30:33.440Z,96160.41
2019-01-23T07:33:35.405Z,96162.08
2019-01-23T07:36:11.461Z,96164.68
2019-01-23T07:41:57.068Z,96158.26
2019-01-23T07:44:34.051Z,96167.68
2019-01-23T07:47:19.597Z,96162.13
2019-01-23T07:53:15.801Z,96160.82
2019-01-23T07:58:46.252Z,96153.50
2019-01-23T08:01:39.162Z,96154.37
2019-01-23T08:04:16.890Z,96151.81
2019-01-23T08:06:56.380Z,96147.93
2019-01-23T08:09:33.991Z,96144.95
2019-01-23T08:12:14.287Z,96149.64
2019-01-23T08:14:59.811Z,96140.23
2019-01-23T08:17:33.152Z,96145.34
2019-01-23T08:20:09.722Z,96142.79
2019-01-23T08:22:39.737Z,96139.36
2019-01-23T08:25:09.384Z,96138.84
2019-01-23T08:27:40.851Z,96137.53
2019-01-23T08:30:19.817Z,96134.05
2019-01-23T08:32:49.480Z,96132.33
2019-01-23T08:35:20.158Z,96133.16
2019-01-23T08:37:50.405Z,96132.70
2019-01-23T08:40:20.243Z,96129.23
2019-01-23T08:42:52.619Z,96137.37
2019-01-23T08:45:22.367Z,96130.05
2019-01-23T08:47:52.349Z,96127.00
2019-01-23T08:50:40.720Z,96125.66
2019-01-23T08:53:14.633Z,96123.55
2019-01-23T08:55:44.504Z,96125.72
2019-01-23T08:58:20.077Z,96122.22
2019-01-23T09:00:51.542Z,96123.92
2019-01-23T09:03:21.265Z,96124.36
2019-01-23T09:05:51.632Z,96125.59
2019-01-23T09:08:21.455Z,96123.89
2019-01-23T09:10:51.259Z,96123.80
2019-01-23T09:13:21.242Z,96126.25
2019-01-23T09:15:51.081Z,96118.03
2019-01-23T09:18:34.753Z,96115.75
2019-01-23T09:21:04.597Z,96120.34
2019-01-23T09:23:34.382Z,96116.36
2019-01-23T09:26:04.193Z,96115.55
2019-01-23T09:28:34.386Z,96117.48
2019-01-23T09:31:09.671Z,96119.58
2019-01-23T09:33:42.533Z,96112.93
2019-01-23T09:36:28.809Z,96113.39
2019-01-23T09:39:21.160Z,96109.80
2019-01-23T09:42:29.017Z,96109.80
2019-01-23T09:45:25.099Z,96096.50
2019-01-23T09:48:15.623Z,96095.70
2019-01-23T09:51:14.688Z,96083.89
2019-01-23T09:53:49.529Z,96089.61
2019-01-23T09:56:20.396Z,96084.09
2019-01-23T09:58:50.105Z,96082.13
2019-01-23T10:01:19.961Z,96081.67
2019-01-23T10:03:53.234Z,96085.06
2019-01-23T10:06:23.069Z,96082.49
2019-01-23T10:08:52.905Z,96082.49
2019-01-23T10:11:23.200Z,96078.80
2019-01-23T10:13:53.485Z,96070.81
2019-01-23T10:16:23.361Z,96076.84
2019-01-23T10:18:56.129Z,96066.08
2019-01-23T10:21:24.727Z,96066.08
2019-01-23T10:23:54.932Z,96060.37
2019-01-23T10:26:24.845Z,96061.17
2019-01-23T10:28:54.849Z,96061.17
2019-01-23T10:31:25.620Z,96049.09
2019-01-23T10:33:55.611Z,96056.39
2019-01-23T10:36:25.502Z,96043.13
2019-01-23T10:38:55.201Z,96043.13
2019-01-23T10:41:25.578Z,96039.08
2019-01-23T10:43:55.296Z,96039.66
2019-01-23T10:46:25.306Z,96030.54
2019-01-23T10:48:55.948Z,96030.54
2019-01-23T10:51:25.795Z,96027.06
2019-01-23T10:53:55.620Z,96016.33
2019-01-23T10:56:25.569Z,96017.36
2019-01-23T10:58:55.453Z,96010.77
2019-01-23T11:01:25.191Z,96005.33
2019-01-23T11:03:55.231Z,96005.33
2019-01-23T11:06:25.211Z,96008.38
2019-01-23T11:08:55.128Z,96010.74
2019-01-23T11:11:25.147Z,96002.86
2019-01-23T11:13:54.942Z,96005.41
2019-01-23T11:16:25.841Z,96008.32
2019-01-23T11:18:55.508Z,96003.01
2019-01-23T11:21:25.950Z,95997.38
2019-01-23T11:23:55.772Z,95992.73
2019-01-23T11:26:25.501Z,95994.81
2019-01-23T11:28:55.347Z,95988.98
2019-01-23T11:31:26.988Z,95990.23
2019-01-23T11:33:56.792Z,95990.23
2019-01-23T11:36:26.628Z,95984.91
2019-01-23T11:38:56.412Z,95972.30
2019-01-23T11:41:26.376Z,95972.30
2019-01-23T11:43:56.344Z,95972.84
2019-01-23T11:46:26.213Z,95974.88
2019-01-23T11:48:56.016Z,95975.21
2019-01-23T11:51:26.810Z,95967.47
2019-01-23T11:53:58.591Z,95966.66
2019-01-23T11:56:28.674Z,95974.47
2019-01-23T11:58:58.485Z,95963.68
2019-01-23T12:01:28.310Z,95960.29
2019-01-23T12:03:58.244Z,95958.66
2019-01-23T12:06:28.072Z,95955.58
2019-01-23T12:08:57.902Z,95959.14
2019-01-23T12:11:27.685Z,95948.69
2019-01-23T12:13:57.529Z,95941.84
2019-01-23T12:16:27.480Z,95926.88
2019-01-23T12:18:57.176Z,95926.88
2019-01-23T12:21:27.031Z,95924.72
2019-01-23T12:23:58.413Z,95911.98
2019-01-23T12:26:28.253Z,95914.69
2019-01-23T12:29:00.764Z,95909.58
2019-01-23T12:31:34.861Z,95900.37
2019-01-23T12:34:02.467Z,95900.37
2019-01-23T12:36:32.259Z,95900.45
2019-01-23T12:39:02.100Z,95896.58
2019-01-23T12:41:31.871Z,95889.51
2019-01-23T12:44:01.682Z,95889.77
2019-01-23T12:46:31.525Z,95893.12
2019-01-23T12:49:02.934Z,95893.12
2019-01-23T12:51:32.807Z,95889.33
2019-01-23T12:54:02.611Z,95894.78
2019-01-23T12:56:32.374Z,95888.29
2019-01-23T12:59:02.308Z,95888.48
2019-01-23T13:01:31.946Z,95887.70
2019-01-23T13:04:01.764Z,95886.56
2019-01-23T13:06:31.610Z,95885.94
2019-01-23T13:09:01.520Z,95888.77
2019-01-23T13:11:31.390Z,95885.75
2019-01-23T13:14:01.167Z,95888.00
2019-01-23T13:16:30.959Z,95879.53
2019-01-23T13:19:00.798Z,95879.53
2019-01-23T13:21:30.546Z,95881.74
2019-01-23T13:24:00.341Z,95892.13
2019-01-23T13:26:32.178Z,95887.89
2019-01-23T13:29:01.957Z,95884.13
2019-01-23T13:31:31.803Z,95886.48
2019-01-23T13:34:01.639Z,95888.17
2019-01-23T13:36:31.481Z,95888.17
2019-01-23T13:39:01.202Z,95879.70
2019-01-23T13:41:31.127Z,95891.91
2019-01-23T13:44:02.409Z,95891.91
2019-01-23T13:46:32.246Z,95884.24
2019-01-23T13:49:02.045Z,95883.39
2019-01-23T13:51:31.787Z,95894.23
2019-01-23T13:54:02.445Z,95894.23
2019-01-23T13:56:32.278Z,95898.60
2019-01-23T13:59:03.710Z,95901.72
2019-01-23T14:01:33.500Z,95900.11
2019-01-23T14:04:03.436Z,95897.16
2019-01-23T14:06:34.760Z,95897.16
2019-01-23T14:09:06.459Z,95903.22
2019-01-23T14:11:36.434Z,95901.95
2019-01-23T14:14:06.292Z,95901.95
2019-01-23T14:16:36.092Z,95902.84
2019-01-23T14:19:05.908Z,95906.55
2019-01-23T14:21:36.580Z,95906.55
2019-01-23T14:24:06.606Z,95910.03
2019-01-23T14:26:36.516Z,95910.36
2019-01-23T14:29:06.911Z,95910.36
2019-01-23T14:31:36.923Z,95910.77
2019-01-23T14:34:07.790Z,95912.05
2019-01-23T14:36:37.604Z,95912.05
2019-01-23T14:39:08.001Z,95906.93
2019-01-23T14:41:37.745Z,95909.16
2019-01-23T14:44:07.627Z,95909.64
2019-01-23T14:46:37.464Z,95917.47
2019-01-23T14:49:07.217Z,95917.53
2019-01-23T14:51:37.032Z,95920.56
2019-01-23T14:54:06.849Z,95913.41
2019-01-23T14:56:37.623Z,95913.41
2019-01-23T14:59:07.420Z,95920.73
2019-01-23T15:01:37.232Z,95924.23
2019-01-23T15:04:07.971Z,95925.13
2019-01-23T15:06:39.468Z,95929.80
2019-01-23T15:09:09.446Z,95923.78
2019-01-23T15:11:39.188Z,95925.58
2019-01-23T15:14:09.191Z,95933.36
2019-01-23T15:16:39.187Z,95938.59
2019-01-23T15:19:10.413Z,95933.16
2019-01-23T15:21:40.619Z,95933.16
2019-01-23T15:24:10.614Z,95941.75
2019-01-23T15:26:40.369Z,95945.28
2019-01-23T15:29:10.858Z,95941.05
2019-01-23T15:31:40.583Z,95946.66
2019-01-23T15:34:10.321Z,95948.44
2019-01-23T15:36:40.079Z,95945.84
2019-01-23T15:39:10.407Z,95945.48
2019-01-23T15:41:40.227Z,95949.33
2019-01-23T15:44:10.105Z,95954.94
2019-01-23T15:46:40.401Z,95952.81
2019-01-23T15:49:10.207Z,95956.28
2019-01-23T15:51:40.123Z,95963.11
2019-01-23T15:54:10.444Z,95959.72
2019-01-23T15:56:40.255Z,95961.86
2019-01-23T15:59:11.129Z,95967.86
2019-01-23T16:01:40.853Z,95972.56
2019-01-23T16:04:10.855Z,95975.00
2019-01-23T16:06:41.273Z,95977.17
2019-01-23T16:09:11.036Z,95978.07
2019-01-23T16:11:40.899Z,95977.67
2019-01-23T16:14:10.708Z,95980.69
2019-01-23T16:16:40.623Z,95982.88
2019-01-23T16:19:11.262Z,95983.30
2019-01-23T16:21:45.570Z,95981.59
2019-01-23T16:24:12.558Z,95985.06
2019-01-23T16:26:42.414Z,95981.67
2019-01-23T16:29:13.727Z,95981.67
2019-01-23T16:31:46.969Z,95988.09
2019-01-23T16:34:16.788Z,95994.54
2019-01-23T16:36:46.607Z,95999.26
2019-01-23T16:39:16.494Z,96000.98
2019-01-23T16:41:46.541Z,95995.89
2019-01-23T16:44:16.266Z,96001.87
2019-01-23T16:46:45.988Z,95994.60
2019-01-23T16:49:16.041Z,95998.04
2019-01-23T16:51:51.355Z,96003.19
2019-01-23T16:54:20.163Z,96007.46
2019-01-23T16:56:50.188Z,96015.16
2019-01-23T16:59:20.012Z,96014.30
2019-01-23T17:01:50.913Z,96010.46
2019-01-23T17:04:21.496Z,96016.42
2019-01-23T17:06:51.245Z,96018.14
2019-01-23T17:09:21.035Z,96010.06
2019-01-23T17:11:50.900Z,96008.34
2019-01-23T17:14:21.625Z,96007.50
2019-01-23T17:16:51.449Z,96011.33
2019-01-23T17:19:21.309Z,96013.44
2019-01-23T17:21:51.236Z,96007.44
2019-01-23T17:24:21.028Z,96014.31
2019-01-23T17:26:51.058Z,96013.89
2019-01-23T17:29:21.419Z,96017.33
2019-01-23T17:31:52.054Z,96023.71
2019-01-23T17:34:22.128Z,96022.43
2019-01-23T17:36:51.920Z,96019.86
2019-01-23T17:39:21.753Z,96020.72
2019-01-23T17:41:51.626Z,96023.70
2019-01-23T17:44:21.467Z,96030.13
2019-01-23T17:46:51.566Z,96028.41
2019-01-23T17:49:26.526Z,96031.83
2019-01-23T17:51:56.349Z,96033.12
2019-01-23T17:54:26.198Z,96029.28
2019-01-23T17:56:56.253Z,96027.55
2019-01-23T17:59:26.220Z,96019.34
2019-01-23T18:01:56.375Z,96021.17
2019-01-23T18:04:26.535Z,96021.62
2019-01-23T18:06:56.390Z,96026.84
2019-01-23T18:09:26.237Z,96025.20
2019-01-23T18:11:56.271Z,96021.78
2019-01-23T18:14:26.193Z,96027.38
2019-01-23T18:16:56.212Z,96028.72
2019-01-23T18:19:26.015Z,96030.86
2019-01-23T18:21:55.807Z,96019.73
2019-01-23T18:24:26.830Z,96018.83
2019-01-23T18:26:58.093Z,96012.77
2019-01-23T18:29:29.543Z,96008.17
2019-01-23T18:32:02.466Z,96006.95
2019-01-23T18:35:01.008Z,96015.97
2019-01-23T18:37:35.524Z,96024.09
2019-01-23T18:40:31.318Z,96029.22
2019-01-23T18:43:19.294Z,96025.34
2019-01-23T18:46:00.576Z,96027.89
2019-01-23T18:48:45.835Z,96037.30
2019-01-23T18:51:19.640Z,96052.69
2019-01-23T18:53:49.479Z,96052.29
2019-01-23T18:56:19.278Z,96048.02
2019-01-23T18:58:49.176Z,96051.01
2019-01-23T19:01:19.060Z,96053.20
2019-01-23T19:03:48.913Z,96046.33
2019-01-23T19:06:21.247Z,96047.19
2019-01-23T19:08:52.698Z,96048.48
2019-01-23T19:11:23.872Z,96043.78
2019-01-23T19:13:54.151Z,96045.91
2019-01-23T19:16:24.288Z,96049.36
2019-01-23T19:18:56.101Z,96047.61
2019-01-23T19:21:25.913Z,96047.16
2019-01-23T19:23:56.793Z,96049.73
2019-01-23T19:26:26.629Z,96054.39
2019-01-23T19:28:56.470Z,96046.27
2019-01-23T19:31:26.351Z,96045.00
2019-01-23T19:33:57.225Z,96049.72
2019-01-23T19:36:26.963Z,96048.88
2019-01-23T19:38:57.527Z,96048.02
2019-01-23T19:41:27.631Z,96049.73
2019-01-23T19:43:57.427Z,96048.44
2019-01-23T19:46:27.343Z,96048.48
2019-01-23T19:48:57.146Z,96054.91
2019-01-23T19:51:29.030Z,96058.30
2019-01-23T19:53:59.066Z,96061.26
2019-01-23T19:56:28.925Z,96060.41
2019-01-23T19:58:58.735Z,96056.97
2019-01-23T20:01:28.547Z,96062.54
2019-01-23T20:03:58.707Z,96060.39
2019-01-23T20:06:28.845Z,96071.49
2019-01-23T20:08:58.838Z,96079.18
2019-01-23T20:11:28.695Z,96081.77
2019-01-23T20:13:58.602Z,96077.08
2019-01-23T20:16:29.193Z,96081.82
2019-01-23T20:18:59.799Z,96081.80
2019-01-23T20:21:30.000Z,96095.94
2019-01-23T20:23:59.811Z,96090.83
2019-01-23T20:26:29.732Z,96083.13
2019-01-23T20:28:59.543Z,96077.53
2019-01-23T20:31:29.406Z,96071.56
2019-01-23T20:33:59.223Z,96071.13
2019-01-23T20:36:29.185Z,96079.70
2019-01-23T20:38:59.075Z,96076.72
2019-01-23T20:41:28.903Z,96075.85
2019-01-23T20:43:59.017Z,96071.13
2019-01-23T20:46:29.083Z,96071.09
2019-01-23T20:48:58.877Z,96080.09
2019-01-23T20:51:28.734Z,96069.84
2019-01-23T20:53:58.708Z,96061.70
2019-01-23T20:56:30.494Z,96076.23
2019-01-23T20:59:00.315Z,96070.72
2019-01-23T21:01:30.274Z,96068.15
2019-01-23T21:04:00.180Z,96066.83
2019-01-23T21:06:35.740Z,96063.82
2019-01-23T21:09:08.818Z,96063.36
2019-01-23T21:11:38.917Z,96068.48
2019-01-23T21:14:08.591Z,96061.67
2019-01-23T21:16:39.482Z,96055.27
2019-01-23T21:19:09.344Z,96045.84
2019-01-23T21:21:39.166Z,96052.25
2019-01-23T21:24:09.080Z,96053.53
2019-01-23T21:26:38.928Z,96063.39
2019-01-23T21:29:08.764Z,96063.84
2019-01-23T21:31:40.227Z,96072.44
2019-01-23T21:34:10.546Z,96073.27
2019-01-23T21:36:41.082Z,96073.70
2019-01-23T21:39:12.025Z,96079.27
2019-01-23T21:41:41.830Z,96075.42
2019-01-23T21:44:11.995Z,96080.58
2019-01-23T21:46:41.997Z,96081.45
2019-01-23T21:49:11.920Z,96088.70
2019-01-23T21:51:42.626Z,96099.36
2019-01-23T21:54:12.681Z,96098.49
2019-01-23T21:56:42.563Z,96091.66
2019-01-23T21:59:12.546Z,96088.64
2019-01-23T22:01:43.943Z,96096.36
2019-01-23T22:04:14.501Z,96089.95
2019-01-23T22:06:44.359Z,96078.82
2019-01-23T22:09:14.212Z,96079.23
2019-01-23T22:11:44.008Z,96087.36
2019-01-23T22:14:13.879Z,96098.51
2019-01-23T22:16:43.682Z,96100.21
2019-01-23T22:19:13.471Z,96109.65
2019-01-23T22:21:43.286Z,96118.22
2019-01-23T22:24:13.101Z,96121.23
2019-01-23T22:26:42.940Z,96122.95
2019-01-23T22:29:12.750Z,96121.67
2019-01-23T22:31:43.386Z,96123.37
2019-01-23T22:34:13.383Z,96128.91
2019-01-23T22:36:43.349Z,96132.76
2019-01-23T22:39:13.250Z,96129.33
2019-01-23T22:41:43.036Z,96128.47
2019-01-23T22:44:12.870Z,96134.06
2019-01-23T22:46:42.795Z,96136.61
2019-01-23T22:49:12.598Z,96136.17
2019-01-23T22:51:42.383Z,96132.33
2019-01-23T22:54:12.224Z,96134.45
2019-01-23T22:56:41.931Z,96140.46
2019-01-23T22:59:11.968Z,96142.18
2019-01-23T23:01:41.778Z,96133.62
2019-01-23T23:04:11.498Z,96141.31
2019-01-23T23:06:42.439Z,96144.31
2019-01-23T23:09:12.201Z,96138.77
2019-01-23T23:11:41.863Z,96137.06
2019-01-23T23:14:11.640Z,96144.34
2019-01-23T23:16:41.501Z,96143.92
2019-01-23T23:19:11.314Z,96144.34
2019-01-23T23:21:41.033Z,96143.48
2019-01-23T23:24:10.786Z,96154.64
2019-01-23T23:26:40.563Z,96150.36
2019-01-23T23:29:11.303Z,96143.10
2019-01-23T23:31:41.100Z,96147.36
2019-01-23T23:34:10.880Z,96146.08
2019-01-23T23:36:40.658Z,96142.64
2019-01-23T23:39:10.464Z,96142.63
2019-01-23T23:41:40.256Z,96144.34
2019-01-23T23:44:09.959Z,96146.50
2019-01-23T23:46:39.728Z,96145.23
2019-01-23T23:49:09.566Z,96147.36
2019-01-23T23:51:39.375Z,96149.92
2019-01-23T23:54:09.137Z,96147.36
2019-01-23T23:56:39.004Z,96150.37
2019-01-23T23:59:08.810Z,96150.36
